Aérodrome :
LOGIN :

S'inscrire | Disclaimer

   EN    FR    IT 

 










Légende :    VFR   VFR Marginal   IFR   IFR Intensif   IFR Très Intensif
Visi : 
Plafond : 
>= 8 km
>= 3000ft
5 à 8 km
1000 à 3000 ft
1500m à 5 km
500 à 1000 ft
800 à 1500m
200 à 500 ft
< 800m
< 200 ft
Symboles :   Orages  Brouillard  Fortes neiges  Fortes précipitations  Vent > 20 kt
SIGMETs :   Divers  Orages  Givrage  Turbulence  Onde Orograph.  Cendres Volcan.






- Altitude de l'aérodrome : 468 ft
- Code IATA : GRO


LEGE - Girona Costa Brava

DERNIER METAR :
  • 022230Z VRB02KT CAVOK 19/16 Q1018

METARs EXPIRÉS :
  • 022200Z 28003KT CAVOK 20/17 Q1018
  • 022130Z 25003KT 210V270 9999 BKN024 21/18 Q1018
  • 022100Z VRB02KT 9999 OVC020 22/18 Q1017
  • 022030Z VRB01KT 9999 OVC019 21/18 Q1017
  • 022000Z 22004KT 190V260 9999 SCT020 OVC025 21/18 Q1017

TAF TAF LEGE
Valide du 02 à 18h jusqu'au 03 à 18h UTC


021700Z 0218/0318 VRB03KT 9999 FEW025 TX30/0313Z TN16/0306Z
PROB30
TEMPO 0218/0220 17010KT
PROB40
TEMPO 0218/0221 3000 SHRA FEW030TCU
PROB30
TEMPO 0218/0220 3000 TSRA FEW030CB
PROB40
TEMPO 0300/0306 1500 BCFG BKN002
BECMG 0310/0312 18012KT



MET'MAP, la Météo Aéronautique d'un coup d'oeil ! - Copyright ORBIFLY Décembre 2007 - Disclaimer

ORBIFLY MET'MAP TEAM :

Programmation & Développement : Alexandra Zaïnal
Sur une idée originale de : Baudouin d'Aumeries
Assistance à la programmation : Marc-Olivier Méhu
Soutien technique & logistique : Manuel Goepfert

Contact : metmap@orbifly.com




SOURCES & CREDITS :

   NOAA